Aérodrome :
LOGIN :

S'inscrire | Disclaimer

   EN    FR    IT 

 










Légende :    VFR   VFR Marginal   IFR   IFR Intensif   IFR Très Intensif
Visi : 
Plafond : 
>= 8 km
>= 3000ft
5 à 8 km
1000 à 3000 ft
1500m à 5 km
500 à 1000 ft
800 à 1500m
200 à 500 ft
< 800m
< 200 ft
Symboles :   Orages  Brouillard  Fortes neiges  Fortes précipitations  Vent > 20 kt
SIGMETs :   Divers  Orages  Givrage  Turbulence  Onde Orograph.  Cendres Volcan.






- Altitude de l'aérodrome : 359 ft
- Code IATA : BVA


LFOB - Beauvais

DERNIER METAR :
  • 272130Z AUTO 26006KT CAVOK 01/M01 Q1015 NOSIG

METARs EXPIRÉS :
  • 272100Z AUTO 26007KT CAVOK 02/M01 Q1014 NOSIG
  • 272030Z AUTO 27008KT CAVOK 03/M00 Q1013 NOSIG
  • 272000Z AUTO 28009KT CAVOK 03/M00 Q1013 NOSIG
  • 271930Z AUTO 29009KT 9999 FEW047 04/M00 Q1012 NOSIG
  • 271900Z AUTO 29009KT CAVOK 04/00 Q1011 NOSIG

TAF TAF LFOB
Valide du 27 à 18h jusqu'au 28 à 18h UTC


271700Z 2718/2818 30015KT 9999 SCT030
BECMG 2718/2721 23005KT
BECMG 2807/2810 18015G25KT
BECMG 2810/2813 OVC013
TEMPO 2813/2818 4000 DZRA OVC007
BECMG 2814/2816 20013KT
ATIS : +33 3 44 11 49 28



MET'MAP, la Météo Aéronautique d'un coup d'oeil ! - Copyright ORBIFLY Décembre 2007 - Disclaimer

ORBIFLY MET'MAP TEAM :

Programmation & Développement : Alexandra Zaïnal
Sur une idée originale de : Baudouin d'Aumeries
Assistance à la programmation : Marc-Olivier Méhu
Soutien technique & logistique : Manuel Goepfert

Contact : metmap@orbifly.com




SOURCES & CREDITS :

   NOAA